createdAt,value
2018-07-21T00:00:34.488Z,22.20
2018-07-21T00:03:02.886Z,22.21
2018-07-21T00:05:31.332Z,22.14
2018-07-21T00:07:59.769Z,22.10
2018-07-21T00:10:28.203Z,22.07
2018-07-21T00:12:56.660Z,22.07
2018-07-21T00:15:25.144Z,22.03
2018-07-21T00:17:53.556Z,21.94
2018-07-21T00:20:21.982Z,21.84
2018-07-21T00:22:50.375Z,21.74
2018-07-21T00:25:18.744Z,21.64
2018-07-21T00:27:47.217Z,21.58
2018-07-21T00:30:15.627Z,21.41
2018-07-21T00:32:44.140Z,21.27
2018-07-21T00:35:12.592Z,21.03
2018-07-21T00:37:41.081Z,20.89
2018-07-21T00:40:09.685Z,20.87
2018-07-21T00:42:38.118Z,20.91
2018-07-21T00:45:06.563Z,21.00
2018-07-21T00:47:34.973Z,21.15
2018-07-21T00:50:03.428Z,21.24
2018-07-21T00:52:32.496Z,21.22
2018-07-21T00:55:00.925Z,21.22
2018-07-21T00:57:29.336Z,21.20
2018-07-21T00:59:57.730Z,21.18
2018-07-21T01:02:26.741Z,21.17
2018-07-21T01:04:55.149Z,21.17
2018-07-21T01:07:23.536Z,21.19
2018-07-21T01:09:51.982Z,21.15
2018-07-21T01:12:20.468Z,21.06
2018-07-21T01:14:48.925Z,20.95
2018-07-21T01:17:17.338Z,20.99
2018-07-21T01:19:45.801Z,20.96
2018-07-21T01:22:14.175Z,21.04
2018-07-21T01:24:42.868Z,21.03
2018-07-21T01:27:11.240Z,20.99
2018-07-21T01:29:39.636Z,20.90
2018-07-21T01:32:08.042Z,20.92
2018-07-21T01:34:36.452Z,20.90
2018-07-21T01:37:04.892Z,20.89
2018-07-21T01:39:33.384Z,20.95
2018-07-21T01:42:01.754Z,20.98
2018-07-21T01:44:30.144Z,21.02
2018-07-21T01:46:58.592Z,21.04
2018-07-21T01:49:27.008Z,21.06
2018-07-21T01:51:55.450Z,21.03
2018-07-21T01:54:23.861Z,21.03
2018-07-21T01:56:52.241Z,20.98
2018-07-21T01:59:20.660Z,20.95
2018-07-21T02:01:49.092Z,20.83
2018-07-21T02:04:17.479Z,20.72
2018-07-21T02:06:45.901Z,20.73
2018-07-21T02:09:14.304Z,20.75
2018-07-21T02:11:42.692Z,20.69
2018-07-21T02:14:11.101Z,20.66
2018-07-21T02:16:39.508Z,20.66
2018-07-21T02:19:08.014Z,20.71
2018-07-21T02:21:36.457Z,20.72
2018-07-21T02:24:04.908Z,20.72
2018-07-21T02:26:33.318Z,20.69
2018-07-21T02:29:01.712Z,20.65
2018-07-21T02:31:30.186Z,20.56
2018-07-21T02:33:58.719Z,20.43
2018-07-21T02:36:27.664Z,20.34
2018-07-21T02:38:56.121Z,20.08
2018-07-21T02:41:24.578Z,19.93
2018-07-21T02:43:52.969Z,19.92
2018-07-21T02:46:21.329Z,19.91
2018-07-21T02:48:49.795Z,19.92
2018-07-21T02:51:18.211Z,19.92
2018-07-21T02:53:46.577Z,19.93
2018-07-21T02:56:14.994Z,19.96
2018-07-21T02:58:43.411Z,19.95
2018-07-21T03:01:11.781Z,19.92
2018-07-21T03:03:40.185Z,19.87
2018-07-21T03:06:08.597Z,19.72
2018-07-21T03:08:36.995Z,19.48
2018-07-21T03:11:05.400Z,19.36
2018-07-21T03:13:33.849Z,19.27
2018-07-21T03:16:02.280Z,19.26
2018-07-21T03:18:30.648Z,19.33
2018-07-21T03:20:59.073Z,19.42
2018-07-21T03:23:27.498Z,19.41
2018-07-21T03:25:55.972Z,19.50
2018-07-21T03:28:24.381Z,19.60
2018-07-21T03:30:52.861Z,19.63
2018-07-21T03:33:21.233Z,19.64
2018-07-21T03:35:49.643Z,19.53
2018-07-21T03:38:18.067Z,19.32
2018-07-21T03:40:46.491Z,19.26
2018-07-21T03:43:14.919Z,19.29
2018-07-21T03:45:43.372Z,19.33
2018-07-21T03:48:11.731Z,19.29
2018-07-21T03:50:40.127Z,19.26
2018-07-21T03:53:08.527Z,19.22
2018-07-21T03:55:36.970Z,19.08
2018-07-21T03:58:05.424Z,18.87
2018-07-21T04:00:33.953Z,18.86
2018-07-21T04:03:02.553Z,18.84
2018-07-21T04:05:30.940Z,18.92
2018-07-21T04:07:59.290Z,18.93
2018-07-21T04:10:27.778Z,18.92
2018-07-21T04:12:56.305Z,18.73
2018-07-21T04:15:24.806Z,18.46
2018-07-21T04:17:53.239Z,18.32
2018-07-21T04:20:21.660Z,18.49
2018-07-21T04:22:50.052Z,18.68
2018-07-21T04:25:18.506Z,18.78
2018-07-21T04:27:47.473Z,18.87
2018-07-21T04:30:15.940Z,18.86
2018-07-21T04:32:44.422Z,18.83
2018-07-21T04:35:12.843Z,18.79
2018-07-21T04:37:41.311Z,18.65
2018-07-21T04:40:09.787Z,18.57
2018-07-21T04:42:38.211Z,18.48
2018-07-21T04:45:06.664Z,18.42
2018-07-21T04:47:35.059Z,18.30
2018-07-21T04:50:04.226Z,18.42
2018-07-21T04:52:33.324Z,18.54
2018-07-21T04:55:01.782Z,18.60
2018-07-21T04:57:30.307Z,18.65
2018-07-21T04:59:58.740Z,18.65
2018-07-21T05:02:27.139Z,18.66
2018-07-21T05:04:55.599Z,18.68
2018-07-21T05:07:24.020Z,18.72
2018-07-21T05:09:52.435Z,18.87
2018-07-21T05:12:20.880Z,19.04
2018-07-21T05:14:49.272Z,19.14
2018-07-21T05:17:17.779Z,19.23
2018-07-21T05:19:46.157Z,19.30
2018-07-21T05:22:14.527Z,19.37
2018-07-21T05:24:43.229Z,19.42
2018-07-21T05:27:11.688Z,19.44
2018-07-21T05:29:40.461Z,19.46
2018-07-21T05:32:08.917Z,19.48
2018-07-21T05:34:37.334Z,19.53
2018-07-21T05:37:05.727Z,19.59
2018-07-21T05:39:34.157Z,19.59
2018-07-21T05:42:02.593Z,19.61
2018-07-21T05:44:31.023Z,19.65
2018-07-21T05:46:59.449Z,19.69
2018-07-21T05:49:27.912Z,19.72
2018-07-21T05:51:56.389Z,19.71
2018-07-21T05:54:25.007Z,19.76
2018-07-21T05:56:53.422Z,19.86
2018-07-21T05:59:22.277Z,19.95
2018-07-21T06:01:50.852Z,20.02
2018-07-21T06:04:19.249Z,20.00
2018-07-21T06:06:47.724Z,20.11
2018-07-21T06:09:16.084Z,20.20
2018-07-21T06:11:45.505Z,20.27
2018-07-21T06:14:13.976Z,20.33
2018-07-21T06:16:42.490Z,20.37
2018-07-21T06:19:10.908Z,20.38
2018-07-21T06:21:39.332Z,20.40
2018-07-21T06:24:07.763Z,20.45
2018-07-21T06:26:36.581Z,20.44
2018-07-21T06:29:05.008Z,20.45
2018-07-21T06:31:33.527Z,20.47
2018-07-21T06:34:01.954Z,20.51
2018-07-21T06:36:30.513Z,20.53
2018-07-21T06:38:58.993Z,20.52
2018-07-21T06:41:27.448Z,20.54
2018-07-21T06:43:55.937Z,20.58
2018-07-21T06:46:24.390Z,20.66
2018-07-21T06:48:52.835Z,20.73
2018-07-21T06:51:21.394Z,20.76
2018-07-21T06:53:49.834Z,20.81
2018-07-21T06:56:18.258Z,20.84
2018-07-21T06:58:46.649Z,20.86
2018-07-21T07:01:15.039Z,20.88
2018-07-21T07:03:43.845Z,20.91
2018-07-21T07:06:12.314Z,20.94
2018-07-21T07:08:40.732Z,20.94
2018-07-21T07:11:09.164Z,20.91
2018-07-21T07:13:37.616Z,20.91
2018-07-21T07:16:06.283Z,20.94
2018-07-21T07:18:34.761Z,20.94
2018-07-21T07:21:03.292Z,20.97
2018-07-21T07:23:31.705Z,20.96
2018-07-21T07:26:00.148Z,20.98
2018-07-21T07:28:28.562Z,21.00
2018-07-21T07:30:57.023Z,21.02
2018-07-21T07:33:25.444Z,21.04
2018-07-21T07:35:54.542Z,21.09
2018-07-21T07:38:22.948Z,21.11
2018-07-21T07:40:51.690Z,21.13
2018-07-21T07:43:20.114Z,21.13
2018-07-21T07:45:48.601Z,21.14
2018-07-21T07:48:17.012Z,21.16
2018-07-21T07:50:45.484Z,21.21
2018-07-21T07:53:14.706Z,21.25
2018-07-21T07:55:43.131Z,21.28
2018-07-21T07:58:11.524Z,21.31
2018-07-21T08:00:39.953Z,21.36
2018-07-21T08:03:08.406Z,21.39
2018-07-21T08:05:36.775Z,21.41
2018-07-21T08:08:05.273Z,21.41
2018-07-21T08:10:33.729Z,21.38
2018-07-21T08:13:02.263Z,21.38
2018-07-21T08:15:30.669Z,21.39
2018-07-21T08:17:59.216Z,21.44
2018-07-21T08:20:27.620Z,21.44
2018-07-21T08:22:56.108Z,21.49
2018-07-21T08:25:24.510Z,21.55
2018-07-21T08:27:54.030Z,21.58
2018-07-21T08:30:22.475Z,21.60
2018-07-21T08:32:50.903Z,21.62
2018-07-21T08:35:19.324Z,21.65
2018-07-21T08:37:47.716Z,21.66
2018-07-21T08:40:16.128Z,21.65
2018-07-21T08:42:44.591Z,21.63
2018-07-21T08:45:13.043Z,21.65
2018-07-21T08:47:41.480Z,21.65
2018-07-21T08:50:09.900Z,21.68
2018-07-21T08:52:38.366Z,21.78
2018-07-21T08:55:06.799Z,21.83
2018-07-21T08:57:35.280Z,21.91
2018-07-21T09:00:04.412Z,21.98
2018-07-21T09:02:32.816Z,21.98
2018-07-21T09:05:01.297Z,22.01
2018-07-21T09:07:29.728Z,22.09
2018-07-21T09:09:58.349Z,22.14
2018-07-21T09:12:26.798Z,22.22
2018-07-21T09:14:55.575Z,22.40
2018-07-21T09:17:24.016Z,22.42
2018-07-21T09:19:52.933Z,22.68
2018-07-21T09:22:21.310Z,22.86
2018-07-21T09:24:50.108Z,22.87
2018-07-21T09:27:18.588Z,22.89
2018-07-21T09:29:47.071Z,22.92
2018-07-21T09:32:15.539Z,23.04
2018-07-21T09:34:44.544Z,23.00
2018-07-21T09:37:13.342Z,22.92
2018-07-21T09:39:41.715Z,22.83
2018-07-21T09:42:10.132Z,22.89
2018-07-21T09:44:38.528Z,23.11
2018-07-21T09:47:07.002Z,23.21
2018-07-21T09:49:35.907Z,23.29
2018-07-21T09:52:04.805Z,23.27
2018-07-21T09:54:34.052Z,23.26
2018-07-21T09:57:02.515Z,23.14
2018-07-21T09:59:30.922Z,23.03
2018-07-21T10:01:59.404Z,23.06
2018-07-21T10:04:27.840Z,23.10
2018-07-21T10:06:56.231Z,23.11
2018-07-21T10:09:24.713Z,23.23
2018-07-21T10:11:53.130Z,23.10
2018-07-21T10:14:21.624Z,23.00
2018-07-21T10:16:50.102Z,22.95
2018-07-21T10:19:18.576Z,22.99
2018-07-21T10:21:47.106Z,23.15
2018-07-21T10:24:20.657Z,23.13
2018-07-21T10:26:54.382Z,23.15
2018-07-21T10:29:22.860Z,23.20
2018-07-21T10:31:51.292Z,23.21
2018-07-21T10:34:19.715Z,23.21
2018-07-21T10:36:48.163Z,23.49
2018-07-21T10:39:16.568Z,23.71
2018-07-21T10:41:45.059Z,23.84
2018-07-21T10:44:13.481Z,24.05
2018-07-21T10:46:42.019Z,23.93
2018-07-21T10:49:10.404Z,23.85
2018-07-21T10:51:38.895Z,23.70
2018-07-21T10:54:07.613Z,23.66
2018-07-21T10:56:36.095Z,23.61
2018-07-21T10:59:04.608Z,23.66
2018-07-21T11:01:33.024Z,23.74
2018-07-21T11:04:01.460Z,23.82
2018-07-21T11:06:29.932Z,24.09
2018-07-21T11:08:58.332Z,24.02
2018-07-21T11:11:26.741Z,24.02
2018-07-21T11:13:55.115Z,23.96
2018-07-21T11:16:23.582Z,23.93
2018-07-21T11:18:51.991Z,24.32
2018-07-21T11:21:20.372Z,24.28
2018-07-21T11:23:48.768Z,24.36
2018-07-21T11:26:17.220Z,24.43
2018-07-21T11:28:45.627Z,24.52
2018-07-21T11:31:14.062Z,24.44
2018-07-21T11:33:42.421Z,24.46
2018-07-21T11:36:11.032Z,24.45
2018-07-21T11:38:39.176Z,24.55
2018-07-21T11:41:07.612Z,24.67
2018-07-21T11:43:36.475Z,24.72
2018-07-21T11:46:04.986Z,24.70
2018-07-21T11:48:33.439Z,24.69
2018-07-21T11:51:02.791Z,24.71
2018-07-21T11:53:31.233Z,24.75
2018-07-21T11:55:59.664Z,24.92
2018-07-21T11:58:28.074Z,25.05
2018-07-21T12:00:56.495Z,25.13
2018-07-21T12:03:24.963Z,25.23
2018-07-21T12:05:53.397Z,25.51
2018-07-21T12:08:21.789Z,25.84
2018-07-21T12:10:50.212Z,26.09
2018-07-21T12:13:18.668Z,26.02
2018-07-21T12:15:47.129Z,25.87
2018-07-21T12:18:15.567Z,25.75
2018-07-21T12:20:44.045Z,25.70
2018-07-21T12:23:12.464Z,25.67
2018-07-21T12:25:40.904Z,25.67
2018-07-21T12:28:09.379Z,25.68
2018-07-21T12:30:37.884Z,26.09
2018-07-21T12:33:06.605Z,26.75
2018-07-21T12:35:35.037Z,26.46
2018-07-21T12:38:03.541Z,26.16
2018-07-21T12:40:32.014Z,26.06
2018-07-21T12:43:00.416Z,26.55
2018-07-21T12:45:28.839Z,26.29
2018-07-21T12:47:57.240Z,27.17
2018-07-21T12:50:25.643Z,28.02
2018-07-21T12:52:54.077Z,28.49
2018-07-21T12:55:22.544Z,28.69
2018-07-21T12:57:50.992Z,29.00
2018-07-21T13:00:19.438Z,29.35
2018-07-21T13:02:47.820Z,29.28
2018-07-21T13:05:16.392Z,29.26
2018-07-21T13:07:44.852Z,29.07
2018-07-21T13:10:13.309Z,28.82
2018-07-21T13:12:41.892Z,28.36
2018-07-21T13:15:10.340Z,28.58
2018-07-21T13:17:38.867Z,28.21
2018-07-21T13:20:07.472Z,28.72
2018-07-21T13:22:35.932Z,29.34
2018-07-21T13:25:04.512Z,29.60
2018-07-21T13:27:32.932Z,29.56
2018-07-21T13:30:01.337Z,29.23
2018-07-21T13:32:29.796Z,29.17
2018-07-21T13:34:58.540Z,29.17
2018-07-21T13:37:28.052Z,29.28
2018-07-21T13:39:56.397Z,29.62
2018-07-21T13:42:25.128Z,29.73
2018-07-21T13:44:53.592Z,29.96
2018-07-21T13:47:21.985Z,29.89
2018-07-21T13:49:50.404Z,29.90
2018-07-21T13:52:18.889Z,29.71
2018-07-21T13:54:48.320Z,29.55
2018-07-21T13:57:16.722Z,29.59
2018-07-21T13:59:45.111Z,29.68
2018-07-21T14:02:13.586Z,29.83
2018-07-21T14:04:41.998Z,29.40
2018-07-21T14:07:10.476Z,29.31
2018-07-21T14:09:38.928Z,29.36
2018-07-21T14:12:07.603Z,29.33
2018-07-21T14:14:36.180Z,29.44
2018-07-21T14:17:04.641Z,29.51
2018-07-21T14:19:33.126Z,29.53
2018-07-21T14:22:01.566Z,29.52
2018-07-21T14:24:30.010Z,28.91
2018-07-21T14:26:58.456Z,29.15
2018-07-21T14:29:26.892Z,29.17
2018-07-21T14:31:55.534Z,28.99
2018-07-21T14:34:23.935Z,29.04
2018-07-21T14:36:52.363Z,29.09
2018-07-21T14:39:20.729Z,28.76
2018-07-21T14:41:49.280Z,28.67
2018-07-21T14:44:17.672Z,28.84
2018-07-21T14:46:46.121Z,29.06
2018-07-21T14:49:14.513Z,29.19
2018-07-21T14:51:42.973Z,29.07
2018-07-21T14:54:11.469Z,28.79
2018-07-21T14:56:39.883Z,28.92
2018-07-21T14:59:08.391Z,28.90
2018-07-21T15:01:36.865Z,29.08
2018-07-21T15:04:05.300Z,29.01
2018-07-21T15:06:33.946Z,28.58
2018-07-21T15:09:02.356Z,28.34
2018-07-21T15:11:30.747Z,28.56
2018-07-21T15:13:59.228Z,28.74
2018-07-21T15:16:29.097Z,28.75
2018-07-21T15:18:57.600Z,28.59
2018-07-21T15:21:26.092Z,28.50
2018-07-21T15:23:54.533Z,28.51
2018-07-21T15:26:23.142Z,28.77
2018-07-21T15:28:51.610Z,28.80
2018-07-21T15:31:20.051Z,28.69
2018-07-21T15:33:48.488Z,28.57
2018-07-21T15:36:16.870Z,28.48
2018-07-21T15:38:45.380Z,28.42
2018-07-21T15:41:13.904Z,28.37
2018-07-21T15:43:42.294Z,28.31
2018-07-21T15:46:10.845Z,28.28
2018-07-21T15:48:39.298Z,28.23
2018-07-21T15:51:08.064Z,28.22
2018-07-21T15:53:36.491Z,28.43
2018-07-21T15:56:04.957Z,28.67
2018-07-21T15:58:33.433Z,28.83
2018-07-21T16:01:01.827Z,28.81
2018-07-21T16:03:30.382Z,28.83
2018-07-21T16:05:58.837Z,28.88
2018-07-21T16:08:27.244Z,28.94
2018-07-21T16:10:55.624Z,29.08
2018-07-21T16:13:24.033Z,29.10
2018-07-21T16:15:52.479Z,29.20
2018-07-21T16:18:20.948Z,29.28
2018-07-21T16:20:49.376Z,29.18
2018-07-21T16:23:17.803Z,29.23
2018-07-21T16:25:46.329Z,28.98
2018-07-21T16:28:14.886Z,28.76
2018-07-21T16:30:43.316Z,28.58
2018-07-21T16:33:11.740Z,28.52
2018-07-21T16:35:40.191Z,28.67
2018-07-21T16:38:08.590Z,28.87
2018-07-21T16:40:36.977Z,29.10
2018-07-21T16:43:05.375Z,28.98
2018-07-21T16:45:33.871Z,28.83
2018-07-21T16:48:02.294Z,28.64
2018-07-21T16:50:30.696Z,28.47
2018-07-21T16:53:00.894Z,28.24
2018-07-21T16:55:29.337Z,28.10
2018-07-21T16:57:57.743Z,28.03
2018-07-21T17:00:26.146Z,28.14
2018-07-21T17:02:54.574Z,28.31
2018-07-21T17:05:22.974Z,28.48
2018-07-21T17:07:51.451Z,28.51
2018-07-21T17:10:19.866Z,28.46
2018-07-21T17:12:48.319Z,28.50
2018-07-21T17:15:17.499Z,28.43
2018-07-21T17:17:45.858Z,28.29
2018-07-21T17:20:14.364Z,28.21
2018-07-21T17:22:42.793Z,28.15
2018-07-21T17:25:11.188Z,28.23
2018-07-21T17:27:39.616Z,28.07
2018-07-21T17:30:08.099Z,27.97
2018-07-21T17:32:36.522Z,27.92
2018-07-21T17:35:04.981Z,27.89
2018-07-21T17:37:33.427Z,27.88
2018-07-21T17:40:01.897Z,27.81
2018-07-21T17:42:30.322Z,27.74
2018-07-21T17:44:58.748Z,27.66
2018-07-21T17:47:27.147Z,27.51
2018-07-21T17:49:55.603Z,27.43
2018-07-21T17:52:24.107Z,27.43
2018-07-21T17:54:52.572Z,27.31
2018-07-21T17:57:20.957Z,27.19
2018-07-21T17:59:49.368Z,27.15
2018-07-21T18:02:17.871Z,26.73
2018-07-21T18:04:46.266Z,26.12
2018-07-21T18:07:14.693Z,26.09
2018-07-21T18:09:43.202Z,26.11
2018-07-21T18:12:11.692Z,26.05
2018-07-21T18:14:40.131Z,26.04
2018-07-21T18:17:08.632Z,25.94
2018-07-21T18:19:37.241Z,25.63
2018-07-21T18:22:06.038Z,25.40
2018-07-21T18:24:34.992Z,25.32
2018-07-21T18:27:03.503Z,24.97
2018-07-21T18:29:31.912Z,24.95
2018-07-21T18:32:00.351Z,25.00
2018-07-21T18:34:28.780Z,24.93
2018-07-21T18:36:57.204Z,24.71
2018-07-21T18:39:25.620Z,24.59
2018-07-21T18:41:54.621Z,24.12
2018-07-21T18:44:23.188Z,23.76
2018-07-21T18:46:51.613Z,23.44
2018-07-21T18:49:20.463Z,23.16
2018-07-21T18:51:48.885Z,22.81
2018-07-21T18:54:18.115Z,22.55
2018-07-21T18:56:46.616Z,22.21
2018-07-21T18:59:15.613Z,21.75
2018-07-21T19:01:44.055Z,21.52
2018-07-21T19:04:12.479Z,21.27
2018-07-21T19:06:40.906Z,21.39
2018-07-21T19:09:10.024Z,21.43
2018-07-21T19:11:38.803Z,21.58
2018-07-21T19:14:07.310Z,21.71
2018-07-21T19:16:44.046Z,21.86
2018-07-21T19:19:12.505Z,21.98
2018-07-21T19:21:42.081Z,22.07
2018-07-21T19:24:10.973Z,22.24
2018-07-21T19:26:45.580Z,22.34
2018-07-21T19:29:14.148Z,22.39
2018-07-21T19:31:48.062Z,22.47
2018-07-21T19:34:16.810Z,22.45
2018-07-21T19:36:45.553Z,22.34
2018-07-21T19:39:14.068Z,22.29
2018-07-21T19:41:47.972Z,22.27
2018-07-21T19:44:17.068Z,22.24
2018-07-21T19:46:45.463Z,22.21
2018-07-21T19:49:13.888Z,22.16
2018-07-21T19:51:42.315Z,22.13
2018-07-21T19:54:10.798Z,22.04
2018-07-21T19:56:39.271Z,21.94
2018-07-21T19:59:07.620Z,21.85
2018-07-21T20:01:35.976Z,21.47
2018-07-21T20:04:04.425Z,21.38
2018-07-21T20:06:32.783Z,21.08
2018-07-21T20:09:01.244Z,21.09
2018-07-21T20:11:29.722Z,21.15
2018-07-21T20:13:58.185Z,21.23
2018-07-21T20:16:26.591Z,21.24
2018-07-21T20:18:55.058Z,21.11
2018-07-21T20:21:23.509Z,21.00
2018-07-21T20:23:51.949Z,20.95
2018-07-21T20:26:20.533Z,20.80
2018-07-21T20:28:48.934Z,20.75
2018-07-21T20:31:17.373Z,20.76
2018-07-21T20:33:45.807Z,20.69
2018-07-21T20:36:14.264Z,20.60
2018-07-21T20:38:42.656Z,20.61
2018-07-21T20:41:11.089Z,20.78
2018-07-21T20:43:39.523Z,20.89
2018-07-21T20:46:07.912Z,20.89
2018-07-21T20:48:36.425Z,20.66
2018-07-21T20:51:04.910Z,20.68
2018-07-21T20:53:33.363Z,20.79
2018-07-21T20:56:01.842Z,20.86
2018-07-21T20:58:30.293Z,20.79
2018-07-21T21:00:58.695Z,20.72
2018-07-21T21:03:27.151Z,20.67
2018-07-21T21:05:55.593Z,20.58
2018-07-21T21:08:24.054Z,20.47
2018-07-21T21:10:52.545Z,20.43
2018-07-21T21:13:21.051Z,20.40
2018-07-21T21:15:49.558Z,20.50
2018-07-21T21:18:18.155Z,20.47
2018-07-21T21:20:46.593Z,20.47
2018-07-21T21:23:15.040Z,20.50
2018-07-21T21:25:43.505Z,20.56
2018-07-21T21:28:11.961Z,20.57
2018-07-21T21:30:40.436Z,20.61
2018-07-21T21:33:08.850Z,20.67
2018-07-21T21:35:37.274Z,20.69
2018-07-21T21:38:05.781Z,20.70
2018-07-21T21:40:34.240Z,20.67
2018-07-21T21:43:02.703Z,20.61
2018-07-21T21:45:31.152Z,20.55
2018-07-21T21:47:59.638Z,20.46
2018-07-21T21:50:28.599Z,20.32
2018-07-21T21:52:57.301Z,20.22
2018-07-21T21:55:25.831Z,20.16
2018-07-21T21:57:54.256Z,20.21
2018-07-21T22:00:22.802Z,20.19
2018-07-21T22:02:51.212Z,20.21
2018-07-21T22:05:19.633Z,20.21
2018-07-21T22:07:48.071Z,20.19
2018-07-21T22:10:17.444Z,20.31
2018-07-21T22:12:45.848Z,20.33
2018-07-21T22:15:18.280Z,20.32
2018-07-21T22:17:46.724Z,20.29
2018-07-21T22:20:15.115Z,20.28
2018-07-21T22:22:43.948Z,20.28
2018-07-21T22:25:13.245Z,20.27
2018-07-21T22:27:41.667Z,20.25
2018-07-21T22:30:11.165Z,20.23
2018-07-21T22:32:39.574Z,20.17
2018-07-21T22:35:08.047Z,20.18
2018-07-21T22:37:36.511Z,20.16
2018-07-21T22:40:04.972Z,20.20
2018-07-21T22:42:33.397Z,20.18
2018-07-21T22:45:01.861Z,20.18
2018-07-21T22:47:30.248Z,20.16
2018-07-21T22:49:58.615Z,20.11
2018-07-21T22:52:27.016Z,19.99
2018-07-21T22:54:55.452Z,19.90
2018-07-21T22:57:23.908Z,19.69
2018-07-21T22:59:52.299Z,19.70
2018-07-21T23:02:20.767Z,19.74
2018-07-21T23:04:49.204Z,19.80
2018-07-21T23:07:17.621Z,19.83
2018-07-21T23:09:46.127Z,19.91
2018-07-21T23:12:14.559Z,19.89
2018-07-21T23:14:43.012Z,19.86
2018-07-21T23:17:11.504Z,19.85
2018-07-21T23:19:39.916Z,19.83
2018-07-21T23:22:08.491Z,19.78
2018-07-21T23:24:37.413Z,19.78
2018-07-21T23:27:05.840Z,19.77
2018-07-21T23:29:34.260Z,19.70
2018-07-21T23:32:02.717Z,19.69
2018-07-21T23:34:31.142Z,19.69
2018-07-21T23:36:59.612Z,19.65
2018-07-21T23:39:28.041Z,19.68
2018-07-21T23:41:57.052Z,19.68
2018-07-21T23:44:25.521Z,19.63
2018-07-21T23:46:53.945Z,19.63
2018-07-21T23:49:22.321Z,19.58
2018-07-21T23:51:50.785Z,19.58
2018-07-21T23:54:19.185Z,19.62
2018-07-21T23:56:47.591Z,19.64
2018-07-21T23:59:16.020Z,19.67
